sensor_id;sensor_type;location;lat;lon;timestamp;temperature;humidity
14049;DHT22;7099;53.922;10.728;2022-08-16T00:01:05;22.40;99.90
14049;DHT22;7099;53.922;10.728;2022-08-16T00:05:31;22.30;99.90
14049;DHT22;7099;53.922;10.728;2022-08-16T00:09:59;22.30;99.90
14049;DHT22;7099;53.922;10.728;2022-08-16T00:14:29;22.20;99.90
14049;DHT22;7099;53.922;10.728;2022-08-16T00:18:56;22.20;99.90
14049;DHT22;7099;53.922;10.728;2022-08-16T00:23:24;22.10;99.90
14049;DHT22;7099;53.922;10.728;2022-08-16T00:28:05;22.10;99.90
14049;DHT22;7099;53.922;10.728;2022-08-16T00:32:30;22.10;99.90
14049;DHT22;7099;53.922;10.728;2022-08-16T00:36:56;22.00;99.90
14049;DHT22;7099;53.922;10.728;2022-08-16T00:41:22;22.00;99.90
14049;DHT22;7099;53.922;10.728;2022-08-16T00:46:11;22.00;99.90
14049;DHT22;7099;53.922;10.728;2022-08-16T00:51:00;22.00;99.90
14049;DHT22;7099;53.922;10.728;2022-08-16T00:55:26;21.90;99.90
14049;DHT22;7099;53.922;10.728;2022-08-16T01:00:04;21.80;99.90
14049;DHT22;7099;53.922;10.728;2022-08-16T01:04:33;21.80;99.90
14049;DHT22;7099;53.922;10.728;2022-08-16T01:08:59;21.80;99.90
14049;DHT22;7099;53.922;10.728;2022-08-16T01:13:34;21.80;99.90
14049;DHT22;7099;53.922;10.728;2022-08-16T01:18:03;21.80;99.90
14049;DHT22;7099;53.922;10.728;2022-08-16T01:22:55;21.80;99.90
14049;DHT22;7099;53.922;10.728;2022-08-16T01:27:36;21.80;99.90
14049;DHT22;7099;53.922;10.728;2022-08-16T01:32:07;21.70;99.90
14049;DHT22;7099;53.922;10.728;2022-08-16T01:36:34;21.70;99.90
14049;DHT22;7099;53.922;10.728;2022-08-16T01:41:06;21.70;99.90
14049;DHT22;7099;53.922;10.728;2022-08-16T01:45:34;21.70;99.90
14049;DHT22;7099;53.922;10.728;2022-08-16T01:50:05;21.70;99.90
14049;DHT22;7099;53.922;10.728;2022-08-16T01:54:52;21.60;99.90
14049;DHT22;7099;53.922;10.728;2022-08-16T01:59:17;21.60;99.90
14049;DHT22;7099;53.922;10.728;2022-08-16T02:03:43;21.60;99.90
14049;DHT22;7099;53.922;10.728;2022-08-16T02:08:14;21.60;99.90
14049;DHT22;7099;53.922;10.728;2022-08-16T02:12:58;21.60;99.90
14049;DHT22;7099;53.922;10.728;2022-08-16T02:17:24;21.60;99.90
14049;DHT22;7099;53.922;10.728;2022-08-16T02:21:53;21.60;99.90
14049;DHT22;7099;53.922;10.728;2022-08-16T02:26:39;21.50;99.90
14049;DHT22;7099;53.922;10.728;2022-08-16T02:31:07;21.50;99.90
14049;DHT22;7099;53.922;10.728;2022-08-16T02:35:35;21.50;99.90
14049;DHT22;7099;53.922;10.728;2022-08-16T02:40:21;21.50;99.90
14049;DHT22;7099;53.922;10.728;2022-08-16T02:44:48;21.50;99.90
14049;DHT22;7099;53.922;10.728;2022-08-16T02:49:13;21.50;99.90
14049;DHT22;7099;53.922;10.728;2022-08-16T02:53:43;21.50;99.90
14049;DHT22;7099;53.922;10.728;2022-08-16T02:58:10;21.50;99.90
14049;DHT22;7099;53.922;10.728;2022-08-16T03:02:39;21.50;99.90
14049;DHT22;7099;53.922;10.728;2022-08-16T03:07:05;21.50;99.90
14049;DHT22;7099;53.922;10.728;2022-08-16T03:11:33;21.50;99.90
14049;DHT22;7099;53.922;10.728;2022-08-16T03:15:59;21.50;99.90
14049;DHT22;7099;53.922;10.728;2022-08-16T03:20:24;21.50;99.90
14049;DHT22;7099;53.922;10.728;2022-08-16T03:24:58;21.40;99.90
14049;DHT22;7099;53.922;10.728;2022-08-16T03:29:27;21.50;99.90
14049;DHT22;7099;53.922;10.728;2022-08-16T03:33:57;21.40;99.90
14049;DHT22;7099;53.922;10.728;2022-08-16T03:38:22;21.40;99.90
14049;DHT22;7099;53.922;10.728;2022-08-16T03:42:59;21.40;99.90
14049;DHT22;7099;53.922;10.728;2022-08-16T03:47:46;21.50;99.90
14049;DHT22;7099;53.922;10.728;2022-08-16T03:52:22;21.40;99.90
14049;DHT22;7099;53.922;10.728;2022-08-16T03:56:55;21.40;99.90
14049;DHT22;7099;53.922;10.728;2022-08-16T04:01:23;21.30;99.90
14049;DHT22;7099;53.922;10.728;2022-08-16T04:05:53;21.30;99.90
14049;DHT22;7099;53.922;10.728;2022-08-16T04:10:19;21.30;99.90
14049;DHT22;7099;53.922;10.728;2022-08-16T04:15:03;21.30;99.90
14049;DHT22;7099;53.922;10.728;2022-08-16T04:19:31;21.30;99.90
14049;DHT22;7099;53.922;10.728;2022-08-16T04:23:59;21.30;99.90
14049;DHT22;7099;53.922;10.728;2022-08-16T04:28:26;21.30;99.90
14049;DHT22;7099;53.922;10.728;2022-08-16T04:33:12;21.30;99.90
14049;DHT22;7099;53.922;10.728;2022-08-16T04:37:37;21.30;99.90
14049;DHT22;7099;53.922;10.728;2022-08-16T04:42:06;21.30;99.90
14049;DHT22;7099;53.922;10.728;2022-08-16T04:46:35;21.30;99.90
14049;DHT22;7099;53.922;10.728;2022-08-16T04:51:20;21.30;99.90
14049;DHT22;7099;53.922;10.728;2022-08-16T04:55:47;21.30;99.90
14049;DHT22;7099;53.922;10.728;2022-08-16T05:00:21;21.30;99.90
14049;DHT22;7099;53.922;10.728;2022-08-16T05:04:57;21.30;99.90
14049;DHT22;7099;53.922;10.728;2022-08-16T05:09:22;21.30;99.90
14049;DHT22;7099;53.922;10.728;2022-08-16T05:13:48;21.30;99.90
14049;DHT22;7099;53.922;10.728;2022-08-16T05:18:15;21.30;99.90
14049;DHT22;7099;53.922;10.728;2022-08-16T05:22:50;21.30;99.90
14049;DHT22;7099;53.922;10.728;2022-08-16T05:27:16;21.30;99.90
14049;DHT22;7099;53.922;10.728;2022-08-16T05:31:42;21.40;99.90
14049;DHT22;7099;53.922;10.728;2022-08-16T05:36:12;21.40;99.90
14049;DHT22;7099;53.922;10.728;2022-08-16T05:40:38;21.40;99.90
14049;DHT22;7099;53.922;10.728;2022-08-16T05:45:05;21.50;99.90
14049;DHT22;7099;53.922;10.728;2022-08-16T05:49:31;21.50;99.90
14049;DHT22;7099;53.922;10.728;2022-08-16T05:54:03;21.50;99.90
14049;DHT22;7099;53.922;10.728;2022-08-16T05:58:29;21.50;99.90
14049;DHT22;7099;53.922;10.728;2022-08-16T06:02:57;21.50;99.90
14049;DHT22;7099;53.922;10.728;2022-08-16T06:07:24;21.50;99.90
14049;DHT22;7099;53.922;10.728;2022-08-16T06:11:50;21.50;99.90
14049;DHT22;7099;53.922;10.728;2022-08-16T06:16:16;21.50;99.90
14049;DHT22;7099;53.922;10.728;2022-08-16T06:20:42;21.50;99.90
14049;DHT22;7099;53.922;10.728;2022-08-16T06:25:19;21.60;99.90
14049;DHT22;7099;53.922;10.728;2022-08-16T06:30:00;21.60;99.90
14049;DHT22;7099;53.922;10.728;2022-08-16T06:34:27;21.60;99.90
14049;DHT22;7099;53.922;10.728;2022-08-16T06:39:13;21.70;99.90
14049;DHT22;7099;53.922;10.728;2022-08-16T06:43:38;21.70;99.90
14049;DHT22;7099;53.922;10.728;2022-08-16T06:48:04;21.80;99.90
14049;DHT22;7099;53.922;10.728;2022-08-16T06:52:29;21.90;99.90
14049;DHT22;7099;53.922;10.728;2022-08-16T06:57:20;22.00;99.90
14049;DHT22;7099;53.922;10.728;2022-08-16T07:01:45;22.00;99.90
14049;DHT22;7099;53.922;10.728;2022-08-16T07:06:18;22.10;99.90
14049;DHT22;7099;53.922;10.728;2022-08-16T07:10:45;22.10;99.90
14049;DHT22;7099;53.922;10.728;2022-08-16T07:15:11;22.20;99.90
14049;DHT22;7099;53.922;10.728;2022-08-16T07:19:42;22.30;99.90
14049;DHT22;7099;53.922;10.728;2022-08-16T07:24:29;22.30;99.90
14049;DHT22;7099;53.922;10.728;2022-08-16T07:28:55;22.40;99.90
14049;DHT22;7099;53.922;10.728;2022-08-16T07:33:21;22.60;99.90
14049;DHT22;7099;53.922;10.728;2022-08-16T07:38:06;22.70;99.90
14049;DHT22;7099;53.922;10.728;2022-08-16T07:42:32;22.90;99.90
14049;DHT22;7099;53.922;10.728;2022-08-16T07:46:59;23.00;99.90
14049;DHT22;7099;53.922;10.728;2022-08-16T07:51:25;23.20;99.90
14049;DHT22;7099;53.922;10.728;2022-08-16T07:55:53;23.30;99.90
14049;DHT22;7099;53.922;10.728;2022-08-16T08:00:19;23.50;99.90
14049;DHT22;7099;53.922;10.728;2022-08-16T08:04:50;23.60;99.90
14049;DHT22;7099;53.922;10.728;2022-08-16T08:09:15;23.80;99.90
14049;DHT22;7099;53.922;10.728;2022-08-16T08:13:42;24.00;99.90
14049;DHT22;7099;53.922;10.728;2022-08-16T08:18:08;24.10;99.90
14049;DHT22;7099;53.922;10.728;2022-08-16T08:22:56;24.20;99.90
14049;DHT22;7099;53.922;10.728;2022-08-16T08:27:25;24.50;99.90
14049;DHT22;7099;53.922;10.728;2022-08-16T08:31:51;24.70;99.90
14049;DHT22;7099;53.922;10.728;2022-08-16T08:36:28;25.10;99.90
14049;DHT22;7099;53.922;10.728;2022-08-16T08:40:57;25.40;99.90
14049;DHT22;7099;53.922;10.728;2022-08-16T08:45:23;25.80;99.90
14049;DHT22;7099;53.922;10.728;2022-08-16T08:50:09;26.10;99.90
14049;DHT22;7099;53.922;10.728;2022-08-16T08:54:35;26.40;99.90
14049;DHT22;7099;53.922;10.728;2022-08-16T08:59:03;26.60;99.90
14049;DHT22;7099;53.922;10.728;2022-08-16T09:03:43;26.70;99.90
14049;DHT22;7099;53.922;10.728;2022-08-16T09:08:10;26.80;99.90
14049;DHT22;7099;53.922;10.728;2022-08-16T09:12:37;26.90;99.90
14049;DHT22;7099;53.922;10.728;2022-08-16T09:17:05;27.10;99.90
14049;DHT22;7099;53.922;10.728;2022-08-16T09:21:50;27.20;99.90
14049;DHT22;7099;53.922;10.728;2022-08-16T09:26:20;27.40;99.90
14049;DHT22;7099;53.922;10.728;2022-08-16T09:31:06;27.50;99.90
14049;DHT22;7099;53.922;10.728;2022-08-16T09:35:35;27.70;99.90
14049;DHT22;7099;53.922;10.728;2022-08-16T09:40:05;27.80;99.90
14049;DHT22;7099;53.922;10.728;2022-08-16T09:44:53;28.00;99.90
14049;DHT22;7099;53.922;10.728;2022-08-16T09:49:38;28.20;99.90
14049;DHT22;7099;53.922;10.728;2022-08-16T09:54:14;28.40;99.90
14049;DHT22;7099;53.922;10.728;2022-08-16T09:58:45;28.60;99.90
14049;DHT22;7099;53.922;10.728;2022-08-16T10:03:29;28.70;99.90
14049;DHT22;7099;53.922;10.728;2022-08-16T10:07:55;28.80;99.90
14049;DHT22;7099;53.922;10.728;2022-08-16T10:12:20;28.80;99.90
14049;DHT22;7099;53.922;10.728;2022-08-16T10:17:06;28.90;99.90
14049;DHT22;7099;53.922;10.728;2022-08-16T10:21:34;29.00;99.90
14049;DHT22;7099;53.922;10.728;2022-08-16T10:26:01;29.10;99.90
14049;DHT22;7099;53.922;10.728;2022-08-16T10:30:46;29.10;99.90
14049;DHT22;7099;53.922;10.728;2022-08-16T10:35:23;29.20;99.90
14049;DHT22;7099;53.922;10.728;2022-08-16T10:39:57;29.40;99.90
14049;DHT22;7099;53.922;10.728;2022-08-16T10:44:22;29.50;99.90
14049;DHT22;7099;53.922;10.728;2022-08-16T10:48:48;29.60;99.90
14049;DHT22;7099;53.922;10.728;2022-08-16T10:53:13;29.90;99.90
14049;DHT22;7099;53.922;10.728;2022-08-16T10:57:40;30.00;99.90
14049;DHT22;7099;53.922;10.728;2022-08-16T11:02:07;30.20;99.90
14049;DHT22;7099;53.922;10.728;2022-08-16T11:06:54;30.30;99.90
14049;DHT22;7099;53.922;10.728;2022-08-16T11:11:39;30.50;99.90
14049;DHT22;7099;53.922;10.728;2022-08-16T11:16:24;30.60;99.90
14049;DHT22;7099;53.922;10.728;2022-08-16T11:21:13;30.70;99.90
14049;DHT22;7099;53.922;10.728;2022-08-16T11:25:54;30.90;99.90
14049;DHT22;7099;53.922;10.728;2022-08-16T11:30:40;31.20;99.90
14049;DHT22;7099;53.922;10.728;2022-08-16T11:35:09;31.20;99.90
14049;DHT22;7099;53.922;10.728;2022-08-16T11:39:39;31.40;99.90
14049;DHT22;7099;53.922;10.728;2022-08-16T11:44:05;31.60;99.90
14049;DHT22;7099;53.922;10.728;2022-08-16T11:48:31;31.70;99.90
14049;DHT22;7099;53.922;10.728;2022-08-16T11:53:01;31.80;99.90
14049;DHT22;7099;53.922;10.728;2022-08-16T11:57:28;31.80;99.90
14049;DHT22;7099;53.922;10.728;2022-08-16T12:01:56;32.00;99.90
14049;DHT22;7099;53.922;10.728;2022-08-16T12:06:24;32.20;99.90
14049;DHT22;7099;53.922;10.728;2022-08-16T12:10:54;32.40;99.90
14049;DHT22;7099;53.922;10.728;2022-08-16T12:15:23;32.50;99.90
14049;DHT22;7099;53.922;10.728;2022-08-16T12:19:52;32.50;99.90
14049;DHT22;7099;53.922;10.728;2022-08-16T12:24:18;32.50;99.90
14049;DHT22;7099;53.922;10.728;2022-08-16T12:28:43;32.70;99.90
14049;DHT22;7099;53.922;10.728;2022-08-16T12:33:19;32.70;99.90
14049;DHT22;7099;53.922;10.728;2022-08-16T12:37:50;32.60;99.90
14049;DHT22;7099;53.922;10.728;2022-08-16T12:42:21;32.60;99.90
14049;DHT22;7099;53.922;10.728;2022-08-16T12:47:00;32.60;99.90
14049;DHT22;7099;53.922;10.728;2022-08-16T12:51:46;32.70;99.90
14049;DHT22;7099;53.922;10.728;2022-08-16T12:56:27;32.70;99.90
14049;DHT22;7099;53.922;10.728;2022-08-16T13:00:57;32.80;99.90
14049;DHT22;7099;53.922;10.728;2022-08-16T13:05:23;33.00;99.90
14049;DHT22;7099;53.922;10.728;2022-08-16T13:09:49;33.10;99.90
14049;DHT22;7099;53.922;10.728;2022-08-16T13:14:20;32.90;99.50
14049;DHT22;7099;53.922;10.728;2022-08-16T13:18:57;32.90;99.80
14049;DHT22;7099;53.922;10.728;2022-08-16T13:23:23;33.20;99.90
14049;DHT22;7099;53.922;10.728;2022-08-16T13:27:51;33.10;99.90
14049;DHT22;7099;53.922;10.728;2022-08-16T13:32:28;33.10;99.90
14049;DHT22;7099;53.922;10.728;2022-08-16T13:37:04;32.90;99.90
14049;DHT22;7099;53.922;10.728;2022-08-16T13:41:30;32.70;99.70
14049;DHT22;7099;53.922;10.728;2022-08-16T13:45:57;32.20;99.90
14049;DHT22;7099;53.922;10.728;2022-08-16T13:50:28;31.70;99.90
14049;DHT22;7099;53.922;10.728;2022-08-16T13:55:13;31.50;99.90
14049;DHT22;7099;53.922;10.728;2022-08-16T13:59:42;31.30;99.90
14049;DHT22;7099;53.922;10.728;2022-08-16T14:04:09;31.30;99.90
14049;DHT22;7099;53.922;10.728;2022-08-16T14:08:43;31.30;99.90
14049;DHT22;7099;53.922;10.728;2022-08-16T14:13:23;31.10;99.90
14049;DHT22;7099;53.922;10.728;2022-08-16T14:17:49;31.30;99.90
14049;DHT22;7099;53.922;10.728;2022-08-16T14:22:37;31.40;99.90
14049;DHT22;7099;53.922;10.728;2022-08-16T14:27:06;31.40;99.90
14049;DHT22;7099;53.922;10.728;2022-08-16T14:31:31;31.40;99.90
14049;DHT22;7099;53.922;10.728;2022-08-16T14:36:03;31.50;99.90
14049;DHT22;7099;53.922;10.728;2022-08-16T14:40:31;31.70;99.90
14049;DHT22;7099;53.922;10.728;2022-08-16T14:44:59;31.80;99.90
14049;DHT22;7099;53.922;10.728;2022-08-16T14:49:24;31.90;99.90
14049;DHT22;7099;53.922;10.728;2022-08-16T14:53:50;31.90;99.90
14049;DHT22;7099;53.922;10.728;2022-08-16T14:58:16;32.00;99.70
14049;DHT22;7099;53.922;10.728;2022-08-16T15:03:00;32.20;99.90
14049;DHT22;7099;53.922;10.728;2022-08-16T15:07:29;32.40;99.90
14049;DHT22;7099;53.922;10.728;2022-08-16T15:12:07;32.50;99.90
14049;DHT22;7099;53.922;10.728;2022-08-16T15:16:54;32.60;98.90
14049;DHT22;7099;53.922;10.728;2022-08-16T15:21:19;32.60;99.90
14049;DHT22;7099;53.922;10.728;2022-08-16T15:25:45;32.70;99.30
14049;DHT22;7099;53.922;10.728;2022-08-16T15:30:28;32.90;99.90
14049;DHT22;7099;53.922;10.728;2022-08-16T15:35:14;32.80;99.90
14049;DHT22;7099;53.922;10.728;2022-08-16T15:39:42;32.90;98.80
14049;DHT22;7099;53.922;10.728;2022-08-16T15:44:16;33.10;99.10
14049;DHT22;7099;53.922;10.728;2022-08-16T15:48:46;33.30;98.60
14049;DHT22;7099;53.922;10.728;2022-08-16T15:53:22;33.30;98.50
14049;DHT22;7099;53.922;10.728;2022-08-16T15:57:47;33.50;97.90
14049;DHT22;7099;53.922;10.728;2022-08-16T16:02:16;33.50;97.70
14049;DHT22;7099;53.922;10.728;2022-08-16T16:06:54;33.50;97.00
14049;DHT22;7099;53.922;10.728;2022-08-16T16:11:23;33.50;97.80
14049;DHT22;7099;53.922;10.728;2022-08-16T16:15:51;33.50;97.40
14049;DHT22;7099;53.922;10.728;2022-08-16T16:20:20;33.50;96.90
14049;DHT22;7099;53.922;10.728;2022-08-16T16:24:52;33.50;97.40
14049;DHT22;7099;53.922;10.728;2022-08-16T16:29:17;33.50;97.30
14049;DHT22;7099;53.922;10.728;2022-08-16T16:33:45;33.60;97.10
14049;DHT22;7099;53.922;10.728;2022-08-16T16:38:14;33.60;98.10
14049;DHT22;7099;53.922;10.728;2022-08-16T16:42:43;33.60;97.90
14049;DHT22;7099;53.922;10.728;2022-08-16T16:47:10;33.50;97.60
14049;DHT22;7099;53.922;10.728;2022-08-16T16:51:37;33.50;97.60
14049;DHT22;7099;53.922;10.728;2022-08-16T16:56:09;33.40;98.30
14049;DHT22;7099;53.922;10.728;2022-08-16T17:00:51;33.30;97.60
14049;DHT22;7099;53.922;10.728;2022-08-16T17:05:21;33.30;98.00
14049;DHT22;7099;53.922;10.728;2022-08-16T17:09:52;33.20;97.50
14049;DHT22;7099;53.922;10.728;2022-08-16T17:14:17;33.10;97.80
14049;DHT22;7099;53.922;10.728;2022-08-16T17:18:58;33.00;98.80
14049;DHT22;7099;53.922;10.728;2022-08-16T17:23:42;32.90;98.10
14049;DHT22;7099;53.922;10.728;2022-08-16T17:28:24;32.90;98.00
14049;DHT22;7099;53.922;10.728;2022-08-16T17:33:09;32.70;98.20
14049;DHT22;7099;53.922;10.728;2022-08-16T17:37:36;32.50;98.50
14049;DHT22;7099;53.922;10.728;2022-08-16T17:42:15;32.30;98.70
14049;DHT22;7099;53.922;10.728;2022-08-16T17:46:41;32.10;99.20
14049;DHT22;7099;53.922;10.728;2022-08-16T17:51:16;32.00;98.90
14049;DHT22;7099;53.922;10.728;2022-08-16T17:55:45;31.90;99.10
14049;DHT22;7099;53.922;10.728;2022-08-16T18:00:13;31.70;99.10
14049;DHT22;7099;53.922;10.728;2022-08-16T18:04:44;31.60;99.90
14049;DHT22;7099;53.922;10.728;2022-08-16T18:09:14;31.30;99.90
14049;DHT22;7099;53.922;10.728;2022-08-16T18:13:39;31.10;99.90
14049;DHT22;7099;53.922;10.728;2022-08-16T18:18:07;30.80;99.90
14049;DHT22;7099;53.922;10.728;2022-08-16T18:22:32;30.70;99.90
14049;DHT22;7099;53.922;10.728;2022-08-16T18:26:58;30.40;99.90
14049;DHT22;7099;53.922;10.728;2022-08-16T18:31:43;30.20;99.90
14049;DHT22;7099;53.922;10.728;2022-08-16T18:36:08;30.00;99.90
14049;DHT22;7099;53.922;10.728;2022-08-16T18:40:45;29.80;99.90
14049;DHT22;7099;53.922;10.728;2022-08-16T18:45:11;29.60;99.90
14049;DHT22;7099;53.922;10.728;2022-08-16T18:49:36;29.40;99.90
14049;DHT22;7099;53.922;10.728;2022-08-16T18:54:02;29.20;99.90
14049;DHT22;7099;53.922;10.728;2022-08-16T18:58:29;29.00;99.90
14049;DHT22;7099;53.922;10.728;2022-08-16T19:03:06;28.80;99.90
14049;DHT22;7099;53.922;10.728;2022-08-16T19:07:33;28.60;99.90
14049;DHT22;7099;53.922;10.728;2022-08-16T19:12:03;28.40;99.90
14049;DHT22;7099;53.922;10.728;2022-08-16T19:16:28;28.20;99.90
14049;DHT22;7099;53.922;10.728;2022-08-16T19:20:54;28.00;99.90
14049;DHT22;7099;53.922;10.728;2022-08-16T19:25:22;27.80;99.90
14049;DHT22;7099;53.922;10.728;2022-08-16T19:30:09;27.70;99.90
14049;DHT22;7099;53.922;10.728;2022-08-16T19:34:34;27.50;99.90
14049;DHT22;7099;53.922;10.728;2022-08-16T19:39:02;27.30;99.90
14049;DHT22;7099;53.922;10.728;2022-08-16T19:43:30;27.10;99.90
14049;DHT22;7099;53.922;10.728;2022-08-16T19:47:56;27.00;99.90
14049;DHT22;7099;53.922;10.728;2022-08-16T19:52:28;26.80;99.90
14049;DHT22;7099;53.922;10.728;2022-08-16T19:56:55;26.70;99.90
14049;DHT22;7099;53.922;10.728;2022-08-16T20:01:20;26.50;99.90
14049;DHT22;7099;53.922;10.728;2022-08-16T20:05:50;26.40;99.90
14049;DHT22;7099;53.922;10.728;2022-08-16T20:10:15;26.30;99.90
14049;DHT22;7099;53.922;10.728;2022-08-16T20:14:44;26.20;99.90
14049;DHT22;7099;53.922;10.728;2022-08-16T20:19:10;26.10;99.90
14049;DHT22;7099;53.922;10.728;2022-08-16T20:23:35;25.90;99.90
14049;DHT22;7099;53.922;10.728;2022-08-16T20:28:01;25.80;99.90
14049;DHT22;7099;53.922;10.728;2022-08-16T20:32:26;25.70;99.90
14049;DHT22;7099;53.922;10.728;2022-08-16T20:37:00;25.60;99.90
14049;DHT22;7099;53.922;10.728;2022-08-16T20:41:26;25.50;99.90
14049;DHT22;7099;53.922;10.728;2022-08-16T20:45:51;25.40;99.90
14049;DHT22;7099;53.922;10.728;2022-08-16T20:50:17;25.40;99.90
14049;DHT22;7099;53.922;10.728;2022-08-16T20:54:43;25.30;99.90
14049;DHT22;7099;53.922;10.728;2022-08-16T20:59:08;25.20;99.90
14049;DHT22;7099;53.922;10.728;2022-08-16T21:03:34;25.20;99.90
14049;DHT22;7099;53.922;10.728;2022-08-16T21:08:00;25.10;99.90
14049;DHT22;7099;53.922;10.728;2022-08-16T21:12:25;25.00;99.90
14049;DHT22;7099;53.922;10.728;2022-08-16T21:16:57;25.00;99.90
14049;DHT22;7099;53.922;10.728;2022-08-16T21:21:23;24.80;99.90
14049;DHT22;7099;53.922;10.728;2022-08-16T21:25:57;24.80;99.90
14049;DHT22;7099;53.922;10.728;2022-08-16T21:30:24;24.80;99.90
14049;DHT22;7099;53.922;10.728;2022-08-16T21:34:56;24.70;99.90
14049;DHT22;7099;53.922;10.728;2022-08-16T21:39:21;24.60;99.90
14049;DHT22;7099;53.922;10.728;2022-08-16T21:43:47;24.60;99.90
14049;DHT22;7099;53.922;10.728;2022-08-16T21:48:12;24.50;99.90
14049;DHT22;7099;53.922;10.728;2022-08-16T21:52:38;24.50;99.90
14049;DHT22;7099;53.922;10.728;2022-08-16T21:57:04;24.40;99.90
14049;DHT22;7099;53.922;10.728;2022-08-16T22:01:34;24.40;99.90
14049;DHT22;7099;53.922;10.728;2022-08-16T22:06:05;24.30;99.90
14049;DHT22;7099;53.922;10.728;2022-08-16T22:10:39;24.30;99.90
14049;DHT22;7099;53.922;10.728;2022-08-16T22:15:27;24.10;99.90
14049;DHT22;7099;53.922;10.728;2022-08-16T22:19:52;24.00;99.90
14049;DHT22;7099;53.922;10.728;2022-08-16T22:24:17;24.00;99.90
14049;DHT22;7099;53.922;10.728;2022-08-16T22:28:42;23.90;99.90
14049;DHT22;7099;53.922;10.728;2022-08-16T22:33:16;23.90;99.90
14049;DHT22;7099;53.922;10.728;2022-08-16T22:37:46;23.90;99.90
14049;DHT22;7099;53.922;10.728;2022-08-16T22:42:32;23.80;99.90
14049;DHT22;7099;53.922;10.728;2022-08-16T22:46:58;23.70;99.90
14049;DHT22;7099;53.922;10.728;2022-08-16T22:51:25;23.70;99.90
14049;DHT22;7099;53.922;10.728;2022-08-16T22:55:51;23.70;99.90
14049;DHT22;7099;53.922;10.728;2022-08-16T23:00:23;23.60;99.90
14049;DHT22;7099;53.922;10.728;2022-08-16T23:04:49;23.50;99.90
14049;DHT22;7099;53.922;10.728;2022-08-16T23:09:15;23.40;99.90
14049;DHT22;7099;53.922;10.728;2022-08-16T23:13:41;23.30;99.90
14049;DHT22;7099;53.922;10.728;2022-08-16T23:18:18;23.30;99.90
14049;DHT22;7099;53.922;10.728;2022-08-16T23:22:53;23.20;99.90
14049;DHT22;7099;53.922;10.728;2022-08-16T23:27:40;23.10;99.90
14049;DHT22;7099;53.922;10.728;2022-08-16T23:32:10;23.00;99.90
14049;DHT22;7099;53.922;10.728;2022-08-16T23:36:36;22.90;99.90
14049;DHT22;7099;53.922;10.728;2022-08-16T23:41:03;22.80;99.90
14049;DHT22;7099;53.922;10.728;2022-08-16T23:45:41;22.80;99.90
14049;DHT22;7099;53.922;10.728;2022-08-16T23:50:08;22.70;99.90
14049;DHT22;7099;53.922;10.728;2022-08-16T23:54:34;22.60;99.90
14049;DHT22;7099;53.922;10.728;2022-08-16T23:59:00;22.60;99.90
